Time;durP1;ratioP1;P1;durP2;ratioP2;P2;SDS_P1;SDS_P2;PMS_P1;PMS_P2;Temp;Humidity;BMP_temperature;BMP_pressure;BME280_temperature;BME280_humidity;BME280_pressure;Samples;Min_cycle;Max_cycle;Signal;HPM_P1;HPM_P2
2022/03/01 00:02:07;;;;;;;17.30;11.73;;;4.60;55.70;;;;;;6247713;22;20332;-84
2022/03/01 00:04:32;;;;;;;16.10;11.45;;;4.60;55.70;;;;;;6247651;23;20023;-83
2022/03/01 00:06:58;;;;;;;17.83;11.85;;;4.60;55.60;;;;;;6245865;23;20016;-83
2022/03/01 00:09:24;;;;;;;14.98;10.95;;;4.50;55.70;;;;;;6246077;23;20020;-83
2022/03/01 00:11:49;;;;;;;17.38;11.90;;;4.60;55.90;;;;;;6246250;23;20028;-83
2022/03/01 00:14:15;;;;;;;16.38;11.65;;;4.50;55.60;;;;;;6247476;22;20397;-83
2022/03/01 00:16:41;;;;;;;12.77;9.95;;;4.50;55.40;;;;;;6247458;23;20170;-84
2022/03/01 00:19:06;;;;;;;16.52;11.00;;;4.50;55.70;;;;;;6245948;23;20356;-83
2022/03/01 00:21:32;;;;;;;16.38;11.73;;;4.50;55.60;;;;;;6245416;23;20020;-83
2022/03/01 00:23:58;;;;;;;17.38;11.95;;;4.50;55.50;;;;;;6247823;22;20316;-84
2022/03/01 00:26:23;;;;;;;17.85;11.63;;;4.50;55.60;;;;;;6246116;23;20332;-83
2022/03/01 00:28:49;;;;;;;17.30;12.25;;;4.50;55.60;;;;;;6247301;23;20008;-84
2022/03/01 00:31:15;;;;;;;14.38;9.90;;;4.40;55.70;;;;;;6245754;23;20022;-84
2022/03/01 00:33:41;;;;;;;14.25;10.55;;;4.40;55.80;;;;;;6246297;23;20348;-83
2022/03/01 00:36:07;;;;;;;14.23;10.45;;;4.40;55.90;;;;;;6247493;22;20016;-84
2022/03/01 00:38:33;;;;;;;18.40;11.68;;;4.40;55.90;;;;;;6247123;22;20444;-83
2022/03/01 00:40:59;;;;;;;13.73;10.48;;;4.40;56.00;;;;;;6247184;23;20019;-84
2022/03/01 00:43:25;;;;;;;15.18;10.88;;;4.40;56.00;;;;;;6245832;23;20016;-84
2022/03/01 00:45:53;;;;;;;15.07;10.88;;;4.40;56.10;;;;;;6246971;23;20015;-84
2022/03/01 00:48:19;;;;;;;18.08;11.70;;;4.40;56.20;;;;;;6247332;22;20024;-84
2022/03/01 00:50:45;;;;;;;16.58;10.45;;;4.70;56.10;;;;;;6247335;22;20008;-84
2022/03/01 00:53:11;;;;;;;18.33;11.68;;;4.30;55.90;;;;;;6245601;23;20393;-83
2022/03/01 00:55:37;;;;;;;16.95;10.82;;;4.30;55.70;;;;;;6247332;23;20020;-84
2022/03/01 00:58:03;;;;;;;17.20;11.18;;;4.30;55.60;;;;;;6247612;22;20008;-84
2022/03/01 01:00:30;;;;;;;16.10;11.27;;;4.30;55.70;;;;;;6245308;23;20376;-84
2022/03/01 01:02:56;;;;;;;17.08;10.98;;;4.30;55.70;;;;;;6245571;23;20043;-84
2022/03/01 01:05:22;;;;;;;16.98;11.60;;;4.20;55.50;;;;;;6245582;23;20016;-84
2022/03/01 01:07:49;;;;;;;16.05;11.07;;;4.20;55.60;;;;;;6245619;23;20436;-84
2022/03/01 01:10:16;;;;;;;17.98;11.45;;;4.20;55.70;;;;;;6245241;23;20019;-84
2022/03/01 01:12:42;;;;;;;14.30;10.73;;;4.20;55.80;;;;;;6220250;23;20055;-84
2022/03/01 01:15:10;;;;;;;15.15;10.45;;;4.10;55.80;;;;;;6245171;23;20380;-84
2022/03/01 01:17:36;;;;;;;16.52;10.65;;;4.10;56.00;;;;;;6245339;23;20023;-84
2022/03/01 01:20:07;;;;;;;15.25;11.18;;;4.10;56.30;;;;;;6220018;23;20016;-83
2022/03/01 01:22:42;;;;;;;19.10;12.63;;;4.10;56.40;;;;;;6246903;22;20008;-84
2022/03/01 01:25:34;;;;;;;15.60;10.60;;;4.10;56.70;;;;;;6245116;22;20515;-83
2022/03/01 01:28:01;;;;;;;14.95;10.32;;;4.10;56.80;;;;;;6241114;22;20019;-84
2022/03/01 01:30:32;;;;;;;14.93;11.32;;;4.20;57.00;;;;;;6247159;22;20016;-84
2022/03/01 01:32:58;;;;;;;18.20;11.45;;;4.10;57.30;;;;;;6244534;23;20091;-84
2022/03/01 01:35:25;;;;;;;16.05;11.07;;;4.20;57.40;;;;;;6246746;22;20023;-84
2022/03/01 01:37:52;;;;;;;15.68;11.02;;;4.20;57.10;;;;;;6245397;23;20016;-84
2022/03/01 01:40:26;;;;;;;14.52;10.88;;;4.20;57.10;;;;;;6245340;23;20015;-84
2022/03/01 01:42:53;;;;;;;16.15;11.05;;;4.20;57.40;;;;;;6244066;23;20020;-84
2022/03/01 01:45:20;;;;;;;18.10;11.90;;;4.20;57.60;;;;;;6253609;22;20393;-84
2022/03/01 01:47:47;;;;;;;21.75;11.75;;;4.20;57.30;;;;;;6254044;23;20047;-84
2022/03/01 01:50:14;;;;;;;17.50;10.85;;;4.20;57.30;;;;;;6253421;22;20020;-84
2022/03/01 01:52:39;;;;;;;14.82;10.80;;;4.20;57.00;;;;;;6245930;23;20012;-84
2022/03/01 01:55:06;;;;;;;19.70;12.00;;;4.20;56.80;;;;;;6220058;23;20069;-84
2022/03/01 01:57:31;;;;;;;15.57;11.32;;;4.20;56.40;;;;;;6247673;23;20023;-84
2022/03/01 01:59:57;;;;;;;17.08;11.30;;;4.10;56.10;;;;;;6247720;23;20012;-84
2022/03/01 02:02:25;;;;;;;16.10;10.88;;;4.10;56.10;;;;;;6247678;22;20012;-85
2022/03/01 02:04:51;;;;;;;15.80;10.80;;;4.10;56.70;;;;;;6245506;23;20024;-85
2022/03/01 02:07:17;;;;;;;17.30;11.40;;;4.10;57.20;;;;;;6247202;22;20019;-85
2022/03/01 02:09:43;;;;;;;18.10;12.65;;;4.10;57.40;;;;;;6245260;23;20016;-86
2022/03/01 02:12:09;;;;;;;16.25;11.52;;;4.10;57.20;;;;;;6246997;22;20389;-86
2022/03/01 02:14:37;;;;;;;14.73;10.68;;;4.00;57.00;;;;;;6246405;22;20009;-85
2022/03/01 02:17:05;;;;;;;14.48;9.88;;;4.10;57.40;;;;;;6245132;23;20052;-84
2022/03/01 02:19:31;;;;;;;18.25;11.25;;;4.10;57.70;;;;;;6247094;22;20008;-85
2022/03/01 02:21:57;;;;;;;17.30;11.13;;;4.10;57.40;;;;;;6246888;22;20432;-86
2022/03/01 02:24:26;;;;;;;14.63;10.65;;;4.10;57.10;;;;;;6245164;22;20047;-85
2022/03/01 02:26:56;;;;;;;17.80;11.88;;;4.00;57.10;;;;;;6244791;23;20015;-85
2022/03/01 02:29:23;;;;;;;15.63;11.07;;;4.00;57.10;;;;;;6246709;22;20024;-85
2022/03/01 02:31:51;;;;;;;15.35;10.80;;;4.00;57.00;;;;;;6245170;23;20012;-83
2022/03/01 02:34:17;;;;;;;17.45;11.50;;;4.00;57.20;;;;;;6246763;22;20062;-83
2022/03/01 02:36:43;;;;;;;19.83;11.63;;;4.00;57.30;;;;;;6246746;22;20024;-83
2022/03/01 02:39:09;;;;;;;16.10;11.13;;;4.00;57.40;;;;;;6244966;23;20027;-83
2022/03/01 02:41:39;;;;;;;16.65;11.38;;;4.00;57.30;;;;;;6244395;23;20054;-83
2022/03/01 02:44:06;;;;;;;15.07;10.68;;;4.00;57.00;;;;;;6245016;23;20023;-83
2022/03/01 02:46:32;;;;;;;15.32;11.55;;;3.90;57.00;;;;;;6246721;23;20448;-82
2022/03/01 02:48:57;;;;;;;18.50;12.07;;;4.00;57.20;;;;;;6246609;23;20062;-82
2022/03/01 02:51:23;;;;;;;16.60;10.55;;;3.90;57.10;;;;;;6246663;23;20019;-85
2022/03/01 02:53:49;;;;;;;16.60;10.77;;;3.90;57.00;;;;;;6246820;23;20016;-86
2022/03/01 02:56:15;;;;;;;14.90;11.23;;;3.90;57.30;;;;;;6248592;23;20020;-85
2022/03/01 02:58:40;;;;;;;17.05;11.40;;;3.90;57.40;;;;;;6246528;23;20016;-85
2022/03/01 03:01:07;;;;;;;16.92;11.25;;;3.90;57.30;;;;;;6248606;23;20091;-85
2022/03/01 03:03:33;;;;;;;17.88;11.52;;;3.90;57.20;;;;;;6248208;22;20440;-85
2022/03/01 03:05:59;;;;;;;15.02;10.70;;;3.90;57.00;;;;;;6248691;22;20364;-85
2022/03/01 03:08:25;;;;;;;18.95;13.27;;;3.90;57.30;;;;;;6248145;23;20012;-85
2022/03/01 03:10:50;;;;;;;15.68;10.40;;;3.90;56.80;;;;;;6248445;23;20016;-86
2022/03/01 03:13:16;;;;;;;15.90;9.93;;;3.90;56.80;;;;;;6246711;23;20016;-85
2022/03/01 03:15:42;;;;;;;17.90;11.68;;;3.80;56.90;;;;;;6247714;23;20049;-85
2022/03/01 03:18:07;;;;;;;16.95;11.50;;;3.80;57.20;;;;;;6248397;23;20016;-86
2022/03/01 03:20:34;;;;;;;18.50;11.30;;;3.80;57.10;;;;;;6248414;23;20016;-85
2022/03/01 03:23:00;;;;;;;17.60;11.35;;;3.80;57.10;;;;;;6246715;23;20012;-86
2022/03/01 03:25:26;;;;;;;18.15;12.15;;;3.80;57.10;;;;;;6247791;22;20020;-86
2022/03/01 03:27:51;;;;;;;15.07;11.23;;;3.80;57.10;;;;;;6246308;23;20317;-86
2022/03/01 03:30:17;;;;;;;16.40;11.55;;;3.80;56.90;;;;;;6221086;23;20020;-86
2022/03/01 03:32:43;;;;;;;14.90;10.25;;;3.80;57.10;;;;;;6246306;23;20008;-85
2022/03/01 03:35:09;;;;;;;15.10;11.02;;;3.80;57.30;;;;;;6246362;23;20444;-86
2022/03/01 03:37:35;;;;;;;15.98;10.70;;;3.80;57.60;;;;;;6248186;22;20016;-86
2022/03/01 03:40:02;;;;;;;15.63;11.07;;;3.80;57.70;;;;;;6247719;22;20063;-86
2022/03/01 03:42:28;;;;;;;17.67;12.27;;;3.80;57.70;;;;;;6248111;22;20015;-86
2022/03/01 03:44:54;;;;;;;17.67;11.75;;;3.80;57.80;;;;;;6246118;23;20574;-86
2022/03/01 03:47:20;;;;;;;16.65;12.00;;;3.80;57.60;;;;;;6246234;23;20012;-86
2022/03/01 03:49:46;;;;;;;16.77;12.00;;;3.80;57.60;;;;;;6246396;23;20028;-85
2022/03/01 03:52:12;;;;;;;16.23;11.40;;;3.80;57.70;;;;;;6246168;23;20015;-86
2022/03/01 03:54:37;;;;;;;15.90;11.23;;;4.20;58.10;;;;;;6247937;23;20016;-86
2022/03/01 03:57:08;;;;;;;14.60;10.43;;;3.80;58.00;;;;;;6247733;22;20044;-86
2022/03/01 03:59:34;;;;;;;16.95;11.32;;;3.80;58.20;;;;;;6246020;23;20012;-86
2022/03/01 04:02:02;;;;;;;15.05;10.35;;;3.90;58.30;;;;;;6245983;23;20105;-86
2022/03/01 04:04:27;;;;;;;14.32;10.27;;;3.90;58.40;;;;;;6247856;22;20020;-86
2022/03/01 04:06:53;;;;;;;16.75;10.63;;;3.90;58.40;;;;;;6248011;22;20016;-86
2022/03/01 04:09:19;;;;;;;14.27;10.13;;;3.90;58.70;;;;;;6248324;22;20016;-87
2022/03/01 04:11:44;;;;;;;12.05;9.38;;;3.90;58.90;;;;;;6247361;23;20039;-86
2022/03/01 04:14:10;;;;;;;14.20;9.88;;;3.90;59.00;;;;;;6247347;23;20016;-86
2022/03/01 04:16:36;;;;;;;16.73;11.73;;;4.00;59.30;;;;;;6245750;23;20336;-86
2022/03/01 04:19:02;;;;;;;17.42;11.90;;;4.00;59.20;;;;;;6247613;22;20020;-86
2022/03/01 04:21:28;;;;;;;14.70;11.45;;;4.00;59.00;;;;;;6247999;22;20379;-86
2022/03/01 04:23:53;;;;;;;15.85;10.68;;;4.00;58.90;;;;;;6247914;22;20016;-86
2022/03/01 04:26:19;;;;;;;17.10;11.10;;;4.00;58.90;;;;;;6247273;23;20020;-86
2022/03/01 04:28:45;;;;;;;15.50;10.82;;;4.00;58.90;;;;;;6247358;23;20012;-86
2022/03/01 04:31:11;;;;;;;14.93;10.68;;;4.00;59.00;;;;;;6245965;23;20020;-86
2022/03/01 04:33:37;;;;;;;15.60;11.13;;;4.10;59.00;;;;;;6245637;23;20509;-86
2022/03/01 04:36:03;;;;;;;14.98;10.50;;;4.00;58.80;;;;;;6247526;23;20082;-87
2022/03/01 04:38:30;;;;;;;19.85;12.27;;;4.10;58.70;;;;;;6247831;22;20447;-86
2022/03/01 04:40:56;;;;;;;15.95;11.05;;;4.10;58.70;;;;;;6247428;22;20091;-86
2022/03/01 04:43:22;;;;;;;14.50;10.60;;;4.10;58.60;;;;;;6245568;23;20020;-86
2022/03/01 04:45:48;;;;;;;16.33;11.32;;;4.00;58.40;;;;;;6245744;23;20013;-86
2022/03/01 04:48:14;;;;;;;14.63;10.63;;;4.10;58.40;;;;;;6247221;23;20039;-86
2022/03/01 04:50:40;;;;;;;14.50;10.77;;;4.00;58.20;;;;;;6220444;23;20020;-86
2022/03/01 04:53:05;;;;;;;15.40;10.65;;;4.10;58.30;;;;;;6245759;23;20019;-86
2022/03/01 04:55:32;;;;;;;15.48;11.65;;;4.10;58.30;;;;;;6245752;23;20120;-86
2022/03/01 04:57:57;;;;;;;15.75;11.45;;;4.10;58.50;;;;;;6219458;23;20055;-85
2022/03/01 05:00:23;;;;;;;17.55;11.40;;;4.10;58.50;;;;;;6245794;23;20340;-85
2022/03/01 05:02:49;;;;;;;14.55;11.18;;;4.10;58.10;;;;;;6247568;23;20012;-86
2022/03/01 05:05:15;;;;;;;17.95;11.65;;;4.10;58.10;;;;;;6247211;23;20023;-86
2022/03/01 05:07:44;;;;;;;17.30;11.40;;;4.10;58.10;;;;;;6244834;23;20008;-86
2022/03/01 05:10:11;;;;;;;16.23;11.23;;;4.10;58.00;;;;;;6245160;23;20023;-86
2022/03/01 05:12:42;;;;;;;16.77;12.25;;;4.10;58.00;;;;;;6247356;22;20373;-86
2022/03/01 05:15:08;;;;;;;17.90;12.30;;;4.10;57.90;;;;;;6245004;23;20047;-86
2022/03/01 05:17:34;;;;;;;19.33;11.82;;;4.10;58.00;;;;;;6247418;22;20016;-86
2022/03/01 05:20:01;;;;;;;16.23;11.43;;;4.10;57.70;;;;;;6245299;23;20020;-86
2022/03/01 05:22:27;;;;;;;18.55;11.63;;;4.00;57.70;;;;;;6245485;23;20016;-86
2022/03/01 05:24:52;;;;;;;15.40;10.83;;;4.00;57.80;;;;;;6245270;22;20027;-86
2022/03/01 05:27:18;;;;;;;16.85;12.00;;;4.10;58.00;;;;;;6247256;23;20027;-85
2022/03/01 05:29:43;;;;;;;16.08;10.90;;;4.10;58.20;;;;;;6245010;23;20059;-86
2022/03/01 05:32:09;;;;;;;16.83;11.85;;;4.00;58.10;;;;;;6247082;23;20103;-85
2022/03/01 05:34:34;;;;;;;18.33;12.23;;;4.00;58.00;;;;;;6244949;23;20458;-86
2022/03/01 05:37:00;;;;;;;18.05;11.88;;;4.00;57.90;;;;;;6246299;23;20026;-85
2022/03/01 05:39:26;;;;;;;15.68;11.20;;;4.00;57.80;;;;;;6245141;23;20095;-86
2022/03/01 05:41:51;;;;;;;16.65;11.45;;;4.00;57.80;;;;;;6246747;23;20016;-86
2022/03/01 05:44:17;;;;;;;16.33;11.45;;;4.00;58.00;;;;;;6246695;23;20012;-86
2022/03/01 05:46:43;;;;;;;17.02;11.65;;;4.00;58.30;;;;;;6246661;23;20020;-86
2022/03/01 05:49:08;;;;;;;17.50;11.85;;;4.00;58.50;;;;;;6245152;23;20062;-86
2022/03/01 05:51:34;;;;;;;16.35;10.98;;;4.10;58.50;;;;;;6246941;23;20363;-85
2022/03/01 05:53:59;;;;;;;17.52;12.27;;;4.10;58.10;;;;;;6245294;23;20020;-86
2022/03/01 05:56:25;;;;;;;14.95;11.32;;;4.10;57.90;;;;;;6245043;23;20020;-85
2022/03/01 05:58:51;;;;;;;15.05;11.13;;;4.00;57.60;;;;;;6246739;22;20100;-85
2022/03/01 06:01:16;;;;;;;14.30;10.75;;;4.00;57.60;;;;;;6244401;23;20381;-85
2022/03/01 06:03:42;;;;;;;16.70;11.27;;;4.00;57.90;;;;;;6243832;23;20016;-86
2022/03/01 06:06:08;;;;;;;15.85;11.50;;;4.00;58.20;;;;;;6247235;22;20333;-86
2022/03/01 06:08:33;;;;;;;17.08;11.73;;;4.00;58.30;;;;;;6249736;23;20020;-86
2022/03/01 06:10:59;;;;;;;15.82;10.90;;;4.00;58.50;;;;;;6252485;23;20019;-86
2022/03/01 06:13:24;;;;;;;15.30;11.15;;;4.00;58.70;;;;;;6250572;23;20020;-86
2022/03/01 06:15:50;;;;;;;15.50;11.60;;;4.10;59.00;;;;;;6248086;23;20317;-86
2022/03/01 06:18:16;;;;;;;14.63;10.73;;;4.10;59.00;;;;;;6246358;23;20020;-86
2022/03/01 06:20:41;;;;;;;16.23;10.98;;;4.10;59.00;;;;;;6249008;23;20332;-86
2022/03/01 06:23:07;;;;;;;17.42;11.40;;;4.10;59.10;;;;;;6246767;23;20020;-86
2022/03/01 06:25:33;;;;;;;16.88;11.77;;;4.10;59.10;;;;;;6247096;22;20016;-86
2022/03/01 06:27:58;;;;;;;16.20;11.43;;;4.10;58.80;;;;;;6248635;23;20011;-86
2022/03/01 06:30:24;;;;;;;17.92;11.45;;;4.10;58.50;;;;;;6248927;23;20078;-87
2022/03/01 06:32:50;;;;;;;16.40;11.75;;;4.10;58.80;;;;;;6248436;22;20016;-86
2022/03/01 06:35:16;;;;;;;19.75;11.90;;;4.20;58.20;;;;;;6248548;23;20022;-86
2022/03/01 06:37:42;;;;;;;18.90;12.73;;;4.10;57.90;;;;;;6248571;22;20060;-87
2022/03/01 06:40:08;;;;;;;17.88;11.98;;;4.10;57.70;;;;;;6248444;23;20018;-87
2022/03/01 06:42:34;;;;;;;14.32;11.23;;;4.10;57.50;;;;;;6249004;22;20012;-86
2022/03/01 06:44:59;;;;;;;18.05;12.18;;;4.00;57.50;;;;;;6246981;23;20062;-86
2022/03/01 06:47:25;;;;;;;17.73;12.90;;;4.10;57.60;;;;;;6246928;23;20020;-86
2022/03/01 06:49:51;;;;;;;16.80;12.23;;;4.00;57.60;;;;;;6248914;23;20199;-86
2022/03/01 06:52:17;;;;;;;19.55;12.52;;;4.00;57.70;;;;;;6247325;23;20016;-86
2022/03/01 06:54:43;;;;;;;17.60;11.98;;;4.00;57.70;;;;;;6248120;23;20424;-87
2022/03/01 06:57:08;;;;;;;19.30;13.20;;;4.00;57.90;;;;;;6248260;23;20083;-86
2022/03/01 06:59:34;;;;;;;15.02;10.93;;;4.00;58.20;;;;;;6246565;23;20016;-86
2022/03/01 07:02:00;;;;;;;17.88;13.30;;;4.00;58.40;;;;;;6246424;23;20024;-86
2022/03/01 07:04:26;;;;;;;17.80;12.05;;;4.00;58.70;;;;;;6248163;23;20024;-86
2022/03/01 07:06:52;;;;;;;19.10;12.38;;;4.00;58.50;;;;;;6246001;23;20444;-87
2022/03/01 07:09:18;;;;;;;18.45;12.65;;;4.00;58.20;;;;;;6246669;23;20090;-85
2022/03/01 07:11:44;;;;;;;21.92;13.63;;;4.10;58.40;;;;;;6246689;23;20023;-86
2022/03/01 07:14:09;;;;;;;17.02;11.77;;;4.10;58.50;;;;;;6244665;23;20016;-87
2022/03/01 07:16:35;;;;;;;17.67;12.25;;;4.10;58.50;;;;;;6246779;23;20044;-86
2022/03/01 07:19:01;;;;;;;20.38;13.80;;;4.20;58.40;;;;;;6246717;23;20016;-87
2022/03/01 07:21:26;;;;;;;17.75;12.02;;;4.10;58.00;;;;;;6247667;23;20054;-86
2022/03/01 07:23:52;;;;;;;18.00;12.05;;;4.10;58.00;;;;;;6248643;22;20013;-88
2022/03/01 07:26:18;;;;;;;16.25;11.80;;;4.10;57.90;;;;;;6251608;23;20020;-90
2022/03/01 07:28:43;;;;;;;19.35;13.18;;;4.10;58.20;;;;;;6252345;23;20022;-89
2022/03/01 07:31:09;;;;;;;18.42;13.23;;;4.20;58.60;;;;;;6253293;23;20051;-89
2022/03/01 07:33:34;;;;;;;18.10;12.63;;;4.20;58.80;;;;;;6250589;23;20016;-89
2022/03/01 07:36:00;;;;;;;17.83;13.55;;;4.20;58.50;;;;;;6250036;23;20020;-88
2022/03/01 07:38:26;;;;;;;18.15;13.13;;;4.30;58.40;;;;;;6248743;23;20019;-89
2022/03/01 07:40:52;;;;;;;18.77;12.15;;;4.30;58.10;;;;;;6249468;23;20023;-89
2022/03/01 07:43:17;;;;;;;18.95;13.18;;;4.30;58.00;;;;;;6252660;23;20070;-91
2022/03/01 07:45:43;;;;;;;18.15;12.73;;;4.30;58.10;;;;;;6225747;23;20020;-89
2022/03/01 07:48:10;;;;;;;19.17;13.63;;;4.40;58.20;;;;;;6255160;23;20020;-86
2022/03/01 07:50:36;;;;;;;20.23;13.13;;;4.40;58.10;;;;;;6232744;23;20020;-88
2022/03/01 07:53:02;;;;;;;19.45;12.70;;;4.40;58.00;;;;;;6233448;23;20016;-87
2022/03/01 07:55:29;;;;;;;17.58;11.95;;;4.50;58.00;;;;;;6259665;23;20723;-89
2022/03/01 07:57:55;;;;;;;18.13;12.70;;;4.50;57.90;;;;;;6255766;23;20028;-88
2022/03/01 08:00:23;;;;;;;18.60;13.50;;;4.60;57.90;;;;;;6257230;23;20379;-89
2022/03/01 08:02:49;;;;;;;19.52;12.75;;;4.60;57.70;;;;;;6253325;23;20016;-88
2022/03/01 08:05:15;;;;;;;17.90;12.60;;;4.60;57.50;;;;;;6248272;23;20379;-87
2022/03/01 08:07:41;;;;;;;18.23;13.25;;;4.70;57.30;;;;;;6224018;23;20020;-91
2022/03/01 08:10:07;;;;;;;18.90;13.07;;;4.80;57.30;;;;;;6251815;23;20018;-88
2022/03/01 08:12:32;;;;;;;20.63;13.15;;;4.70;57.20;;;;;;6226356;23;20012;-86
2022/03/01 08:14:58;;;;;;;18.38;13.02;;;4.70;57.20;;;;;;6226508;23;20020;-89
2022/03/01 08:17:24;;;;;;;16.10;12.60;;;4.70;57.30;;;;;;6252255;23;20023;-87
2022/03/01 08:19:49;;;;;;;18.38;12.57;;;4.90;57.30;;;;;;6249409;23;20016;-88
2022/03/01 08:22:15;;;;;;;18.95;13.77;;;4.80;57.30;;;;;;6252317;23;20008;-89
2022/03/01 08:24:41;;;;;;;17.42;13.52;;;4.90;57.80;;;;;;6249534;22;20341;-87
2022/03/01 08:27:07;;;;;;;19.08;12.57;;;4.90;57.30;;;;;;6255688;23;20043;-88
2022/03/01 08:29:36;;;;;;;19.40;13.02;;;4.90;57.30;;;;;;6256160;23;20012;-88
2022/03/01 08:32:02;;;;;;;18.48;14.00;;;4.90;57.30;;;;;;6250722;23;20031;-89
2022/03/01 08:34:28;;;;;;;19.17;14.77;;;5.00;57.40;;;;;;6248967;23;20008;-88
2022/03/01 08:36:54;;;;;;;21.73;14.90;;;5.00;57.40;;;;;;6248426;23;20070;-88
2022/03/01 08:39:19;;;;;;;20.15;13.43;;;5.10;57.50;;;;;;6248233;23;20027;-89
2022/03/01 08:41:45;;;;;;;17.67;13.38;;;5.10;57.50;;;;;;6248364;23;20016;-89
2022/03/01 08:47:57;;;;;;;18.60;14.20;;;5.30;57.70;;;;;;6229319;23;20035;-89
2022/03/01 08:50:23;;;;;;;18.83;13.35;;;5.40;57.70;;;;;;6249760;23;20440;-89
2022/03/01 08:52:49;;;;;;;19.13;13.57;;;5.50;57.70;;;;;;6251571;23;20038;-89
2022/03/01 08:55:15;;;;;;;18.52;12.85;;;5.60;57.40;;;;;;6251875;22;20102;-89
2022/03/01 08:57:41;;;;;;;18.42;13.13;;;5.90;57.20;;;;;;6251411;23;20020;-89
2022/03/01 09:00:10;;;;;;;19.67;13.23;;;5.80;56.90;;;;;;6250401;23;20012;-89
2022/03/01 09:02:36;;;;;;;17.38;12.75;;;5.80;56.80;;;;;;6249246;23;20014;-88
2022/03/01 09:05:02;;;;;;;20.42;13.15;;;5.90;56.80;;;;;;6248963;23;20051;-88
2022/03/01 09:07:27;;;;;;;18.88;13.13;;;6.00;57.20;;;;;;6224439;23;20008;-88
2022/03/01 09:09:53;;;;;;;18.02;13.32;;;6.10;56.60;;;;;;6249128;23;20345;-89
2022/03/01 09:12:19;;;;;;;17.23;12.85;;;6.30;56.50;;;;;;6248852;23;20022;-88
2022/03/01 09:15:04;;;;;;;21.77;14.75;;;6.30;56.30;;;;;;6250293;23;20344;-89
2022/03/01 09:17:31;;;;;;;17.58;13.35;;;6.40;55.80;;;;;;6248414;23;20016;-87
2022/03/01 09:19:57;;;;;;;18.45;13.25;;;6.50;56.00;;;;;;6246527;23;20020;-88
2022/03/01 09:22:22;;;;;;;19.25;13.48;;;6.50;55.70;;;;;;6222366;23;20361;-87
2022/03/01 09:24:48;;;;;;;20.90;14.25;;;6.60;55.40;;;;;;6249609;22;20012;-91
2022/03/01 09:27:14;;;;;;;17.15;13.32;;;7.00;55.50;;;;;;6225936;23;20019;-87
2022/03/01 09:29:40;;;;;;;18.30;13.63;;;6.80;55.40;;;;;;6255420;23;20016;-93
2022/03/01 09:32:06;;;;;;;17.42;13.52;;;6.80;55.30;;;;;;6229017;23;20020;-89
2022/03/01 09:34:31;;;;;;;19.48;13.68;;;6.90;54.90;;;;;;6224475;23;20028;-90
2022/03/01 09:36:57;;;;;;;18.05;13.38;;;7.00;55.00;;;;;;6247939;23;20098;-89
2022/03/01 09:39:23;;;;;;;17.48;13.45;;;7.20;55.00;;;;;;6248096;23;20040;-88
2022/03/01 09:41:50;;;;;;;18.95;13.20;;;7.10;54.80;;;;;;6247497;23;20016;-89
2022/03/01 09:44:17;;;;;;;17.88;12.75;;;7.60;54.90;;;;;;6247938;23;20091;-88
2022/03/01 09:46:44;;;;;;;17.90;13.43;;;7.20;54.60;;;;;;6222401;23;20058;-89
2022/03/01 09:49:10;;;;;;;18.90;12.23;;;7.40;54.70;;;;;;6247725;23;20023;-88
2022/03/01 09:51:39;;;;;;;18.77;13.35;;;7.30;54.40;;;;;;6248312;23;20024;-88
2022/03/01 09:54:05;;;;;;;17.20;13.05;;;7.40;54.50;;;;;;6249049;22;20444;-89
2022/03/01 09:56:31;;;;;;;19.63;13.45;;;7.50;54.50;;;;;;6247941;23;20055;-90
2022/03/01 09:58:58;;;;;;;17.45;13.40;;;7.80;54.60;;;;;;6249147;23;20035;-88
2022/03/01 10:01:24;;;;;;;20.33;13.02;;;7.60;54.30;;;;;;6247548;23;20031;-89
2022/03/01 10:03:51;;;;;;;19.63;13.52;;;7.70;54.00;;;;;;6248788;23;20019;-89
2022/03/01 10:06:19;;;;;;;18.05;13.27;;;8.20;54.40;;;;;;6251358;22;20068;-89
2022/03/01 10:08:45;;;;;;;18.90;13.30;;;8.30;54.10;;;;;;6250112;23;20047;-89
2022/03/01 10:11:11;;;;;;;18.27;13.70;;;8.00;53.80;;;;;;6251553;22;20016;-88
2022/03/01 10:13:39;;;;;;;17.45;12.73;;;8.30;53.80;;;;;;6250842;23;20016;-89
2022/03/01 10:16:09;;;;;;;16.98;13.05;;;8.30;53.70;;;;;;6248794;23;20134;-89
2022/03/01 10:18:57;;;;;;;14.77;12.25;;;8.40;53.60;;;;;;6248023;23;20016;-89
2022/03/01 10:21:24;;;;;;;17.05;11.90;;;8.50;53.20;;;;;;6247860;23;20023;-89
2022/03/01 10:23:58;;;;;;;16.33;12.55;;;8.70;53.00;;;;;;6248134;22;20091;-88
2022/03/01 10:26:27;;;;;;;17.55;13.95;;;8.90;52.60;;;;;;6247035;23;20095;-87
2022/03/01 10:28:55;;;;;;;17.13;12.63;;;9.00;52.60;;;;;;6247962;23;20452;-89
2022/03/01 10:31:29;;;;;;;18.05;12.82;;;9.20;52.50;;;;;;6250116;23;20019;-88
2022/03/01 10:33:57;;;;;;;19.65;13.88;;;9.20;51.60;;;;;;6252880;23;20020;-88
2022/03/01 10:36:25;;;;;;;16.90;12.25;;;9.30;51.50;;;;;;6253692;23;20123;-89
2022/03/01 10:38:59;;;;;;;16.98;12.50;;;9.40;51.30;;;;;;6252244;23;20008;-89
2022/03/01 10:41:27;;;;;;;14.75;12.43;;;9.50;50.80;;;;;;6258062;23;20021;-89
2022/03/01 10:43:57;;;;;;;16.27;12.57;;;9.60;50.70;;;;;;6254824;23;20024;-89
2022/03/01 10:50:09;;;;;;;15.85;12.57;;;9.80;50.60;;;;;;6247710;23;20066;-88
2022/03/01 10:52:39;;;;;;;17.88;13.25;;;9.90;50.90;;;;;;6246911;23;20023;-89
2022/03/01 10:55:06;;;;;;;16.02;12.68;;;9.90;50.70;;;;;;6248672;22;20023;-89
2022/03/01 10:57:32;;;;;;;14.43;12.15;;;10.00;50.80;;;;;;6221722;23;20464;-89
2022/03/01 11:00:17;;;;;;;16.90;13.23;;;10.00;50.60;;;;;;6248852;22;20022;-89
2022/03/01 11:02:43;;;;;;;16.17;12.68;;;10.10;50.70;;;;;;6250044;23;20365;-90
2022/03/01 11:05:08;;;;;;;16.50;12.38;;;10.10;50.30;;;;;;6222716;23;20023;-91
2022/03/01 11:07:35;;;;;;;18.17;12.45;;;10.10;50.00;;;;;;6251157;23;20023;-86
2022/03/01 11:10:05;;;;;;;19.80;14.15;;;10.20;50.10;;;;;;6250102;22;20020;-87
2022/03/01 11:12:30;;;;;;;17.40;12.70;;;10.20;49.60;;;;;;6249532;22;20043;-87
2022/03/01 11:15:52;;;;;;;17.20;13.25;;;10.30;49.40;;;;;;6248884;23;20016;-88
2022/03/01 11:18:34;;;;;;;17.02;12.35;;;10.30;49.10;;;;;;6248909;23;20027;-87
2022/03/01 11:21:04;;;;;;;16.00;12.90;;;10.50;49.20;;;;;;6247210;23;20027;-88
2022/03/01 11:23:30;;;;;;;17.10;13.48;;;10.40;49.50;;;;;;6247471;22;20047;-87
2022/03/01 11:26:14;;;;;;;21.08;14.40;;;10.40;49.30;;;;;;6249050;22;20023;-86
2022/03/01 11:28:49;;;;;;;17.83;12.68;;;10.50;49.30;;;;;;6248552;22;20083;-87
2022/03/01 11:31:25;;;;;;;15.82;12.60;;;10.50;49.30;;;;;;6248800;22;20012;-86
2022/03/01 11:34:05;;;;;;;17.60;13.52;;;10.50;49.20;;;;;;6249162;22;20016;-87
2022/03/01 11:36:32;;;;;;;17.77;13.52;;;10.60;49.20;;;;;;6248945;22;20072;-86
2022/03/01 11:39:13;;;;;;;17.75;13.63;;;10.60;49.20;;;;;;6247034;23;20028;-86
2022/03/01 11:41:48;;;;;;;16.45;13.07;;;10.70;48.50;;;;;;6246415;22;20048;-85
2022/03/01 11:44:23;;;;;;;16.17;13.27;;;10.60;48.60;;;;;;6247704;22;20095;-87
2022/03/01 11:46:50;;;;;;;16.80;13.32;;;10.70;48.90;;;;;;6247703;22;20020;-87
2022/03/01 11:49:21;;;;;;;15.95;12.90;;;10.70;49.20;;;;;;6248265;22;20008;-87
2022/03/01 11:51:56;;;;;;;15.23;12.25;;;10.70;49.40;;;;;;6249122;22;20021;-86
2022/03/01 11:54:28;;;;;;;17.08;13.85;;;10.70;49.50;;;;;;6247265;23;20016;-87
2022/03/01 11:56:56;;;;;;;15.63;12.90;;;10.70;48.90;;;;;;6251397;22;20020;-86
2022/03/01 11:59:23;;;;;;;17.02;14.23;;;10.80;48.90;;;;;;6248147;23;20016;-87
2022/03/01 12:02:27;;;;;;;15.85;12.98;;;10.80;49.30;;;;;;6250025;22;20095;-86
2022/03/01 12:04:57;;;;;;;17.38;13.02;;;10.80;49.80;;;;;;6247648;23;20022;-87
2022/03/01 12:07:26;;;;;;;17.42;13.77;;;10.70;50.00;;;;;;6249938;23;20429;-87
2022/03/01 12:09:57;;;;;;;18.05;13.88;;;10.80;49.80;;;;;;6249431;22;20024;-87
2022/03/01 12:12:35;;;;;;;18.13;13.43;;;10.80;49.50;;;;;;6250309;22;20070;-86
2022/03/01 12:15:02;;;;;;;16.75;13.75;;;10.80;49.60;;;;;;6248190;23;20337;-88
2022/03/01 12:17:38;;;;;;;16.15;13.57;;;10.80;50.10;;;;;;6247107;23;20332;-88
2022/03/01 12:20:09;;;;;;;19.45;13.88;;;10.80;50.30;;;;;;6249453;22;20111;-88
2022/03/01 12:22:35;;;;;;;18.75;14.45;;;10.80;49.90;;;;;;6247503;23;20020;-87
2022/03/01 12:25:00;;;;;;;17.10;14.10;;;10.90;49.60;;;;;;6248862;22;20016;-89
2022/03/01 12:27:30;;;;;;;18.45;14.07;;;10.80;49.20;;;;;;6249613;23;20012;-87
2022/03/01 12:30:12;;;;;;;18.50;13.60;;;10.80;49.50;;;;;;6249420;23;20016;-88
2022/03/01 12:32:39;;;;;;;17.08;13.68;;;10.80;49.70;;;;;;6249829;22;20448;-88
2022/03/01 12:35:05;;;;;;;20.42;14.60;;;10.80;50.20;;;;;;6248097;23;20016;-88
2022/03/01 12:37:30;;;;;;;18.10;13.13;;;10.80;50.60;;;;;;6247638;23;20318;-88
2022/03/01 12:39:57;;;;;;;17.13;14.23;;;10.80;51.00;;;;;;6246738;23;20020;-88
2022/03/01 12:42:27;;;;;;;18.65;13.93;;;10.80;51.00;;;;;;6249248;22;20008;-89
2022/03/01 12:44:54;;;;;;;15.60;13.13;;;10.80;50.60;;;;;;6249487;22;20016;-88